Time;durP1;ratioP1;P1;durP2;ratioP2;P2;SDS_P1;SDS_P2;PMS_P1;PMS_P2;Temp;Humidity;BMP_temperature;BMP_pressure;BME280_temperature;BME280_humidity;BME280_pressure;Samples;Min_cycle;Max_cycle;Signal;HPM_P1;HPM_P2
2023/05/11 00:02:25;;;;;;;2.33;2.13;;;;;;;;;;4998668;28;20210;-80
2023/05/11 00:04:53;;;;;;;2.25;1.85;;;;;;;;;;4998516;28;20207;-79
2023/05/11 00:07:21;;;;;;;2.95;1.73;;;;;;;;;;4998838;28;20311;-81
2023/05/11 00:09:48;;;;;;;2.35;2.15;;;;;;;;;;4998556;28;20299;-83
2023/05/11 00:12:16;;;;;;;1.85;1.67;;;;;;;;;;4998296;28;20278;-80
2023/05/11 00:14:45;;;;;;;2.42;2.03;;;;;;;;;;4998197;28;20203;-81
2023/05/11 00:17:12;;;;;;;1.75;1.65;;;;;;;;;;4998146;28;20326;-78
2023/05/11 00:19:40;;;;;;;1.58;1.48;;;;;;;;;;4998838;28;20294;-81
2023/05/11 00:22:07;;;;;;;1.83;1.67;;;;;;;;;;4998809;28;20286;-82
2023/05/11 00:24:35;;;;;;;1.40;1.30;;;;;;;;;;4998233;28;20267;-81
2023/05/11 00:27:02;;;;;;;2.50;2.30;;;;;;;;;;4997830;28;20719;-81
2023/05/11 00:29:29;;;;;;;1.90;1.80;;;;;;;;;;5004757;28;20219;-82
2023/05/11 00:31:58;;;;;;;2.00;1.80;;;;;;;;;;5016790;28;20612;-82
2023/05/11 00:34:26;;;;;;;2.35;1.83;;;;;;;;;;5017514;28;20271;-82
2023/05/11 00:36:53;;;;;;;1.60;1.50;;;;;;;;;;5015269;28;20227;-79
2023/05/11 00:39:21;;;;;;;1.40;1.30;;;;;;;;;;5014204;28;20290;-79
2023/05/11 00:41:48;;;;;;;2.67;2.05;;;;;;;;;;5014537;28;20207;-80
2023/05/11 00:44:15;;;;;;;1.55;1.20;;;;;;;;;;5014093;28;20675;-79
2023/05/11 00:46:43;;;;;;;1.50;1.40;;;;;;;;;;5008451;28;20230;-78
2023/05/11 00:49:15;;;;;;;1.85;1.75;;;;;;;;;;4994112;28;20676;-80
2023/05/11 00:51:43;;;;;;;1.98;1.42;;;;;;;;;;4994550;28;20210;-81
2023/05/11 00:54:14;;;;;;;1.60;1.48;;;;;;;;;;4994953;28;20655;-80
2023/05/11 00:56:41;;;;;;;1.40;1.30;;;;;;;;;;4994563;28;20235;-78
2023/05/11 00:59:09;;;;;;;1.73;1.63;;;;;;;;;;4994447;28;20229;-79
2023/05/11 01:01:39;;;;;;;2.97;2.20;;;;;;;;;;4994465;28;20235;-80
2023/05/11 01:04:06;;;;;;;3.17;2.85;;;;;;;;;;4994498;28;20214;-80
2023/05/11 01:06:45;;;;;;;3.78;3.38;;;;;;;;;;4998944;28;20247;-78
2023/05/11 01:09:21;;;;;;;3.50;3.13;;;;;;;;;;5025917;28;20210;-79
2023/05/11 01:11:54;;;;;;;3.17;2.90;;;;;;;;;;4994232;28;20310;-79
2023/05/11 01:14:27;;;;;;;2.45;2.22;;;;;;;;;;4993868;28;20211;-78
2023/05/11 01:17:04;;;;;;;2.88;2.33;;;;;;;;;;4994340;28;20231;-78
2023/05/11 01:19:41;;;;;;;3.08;2.78;;;;;;;;;;4994300;28;20211;-80
2023/05/11 01:22:24;;;;;;;2.40;2.20;;;;;;;;;;4994306;28;20698;-79
2023/05/11 01:25:18;;;;;;;2.67;2.35;;;;;;;;;;4993978;28;20226;-79
2023/05/11 01:28:08;;;;;;;2.00;1.67;;;;;;;;;;4993942;28;20215;-79
2023/05/11 01:30:43;;;;;;;1.60;1.42;;;;;;;;;;4994045;28;20218;-80
2023/05/11 01:33:13;;;;;;;1.80;1.50;;;;;;;;;;4993700;28;20227;-80
2023/05/11 01:35:46;;;;;;;1.80;1.48;;;;;;;;;;4993800;28;20766;-79
2023/05/11 01:38:14;;;;;;;2.15;2.00;;;;;;;;;;4999223;28;20211;-79
2023/05/11 01:40:43;;;;;;;2.35;2.10;;;;;;;;;;5013176;28;20226;-78
2023/05/11 01:43:15;;;;;;;1.70;1.60;;;;;;;;;;5013541;28;20263;-79
2023/05/11 01:45:47;;;;;;;1.70;1.60;;;;;;;;;;5012599;28;20226;-79
2023/05/11 01:48:19;;;;;;;1.60;1.42;;;;;;;;;;5012531;28;20207;-79
2023/05/11 01:50:47;;;;;;;2.78;2.30;;;;;;;;;;5012176;28;20203;-78
2023/05/11 01:53:14;;;;;;;1.70;1.60;;;;;;;;;;5012288;28;20283;-79
2023/05/11 01:55:43;;;;;;;1.58;1.48;;;;;;;;;;5010920;28;20291;-81
2023/05/11 01:58:11;;;;;;;1.80;1.70;;;;;;;;;;5000164;28;20250;-82
2023/05/11 02:00:38;;;;;;;2.20;2.05;;;;;;;;;;4999584;28;20695;-82
2023/05/11 02:03:07;;;;;;;1.60;1.50;;;;;;;;;;4999108;28;20238;-81
2023/05/11 02:05:35;;;;;;;4.32;2.60;;;;;;;;;;4998051;28;20223;-81
2023/05/11 02:08:05;;;;;;;5.15;2.22;;;;;;;;;;4997688;28;20239;-81
2023/05/11 02:10:33;;;;;;;3.45;2.88;;;;;;;;;;4997567;28;20601;-81
2023/05/11 02:13:01;;;;;;;2.75;2.55;;;;;;;;;;4997590;28;20223;-82
2023/05/11 02:15:29;;;;;;;2.05;1.95;;;;;;;;;;4997379;28;20296;-81
2023/05/11 02:17:57;;;;;;;2.10;1.90;;;;;;;;;;4996139;28;20227;-81
2023/05/11 02:20:27;;;;;;;2.42;2.22;;;;;;;;;;4996673;28;20648;-81
2023/05/11 02:22:55;;;;;;;1.85;1.75;;;;;;;;;;4996089;28;20267;-82
2023/05/11 02:25:23;;;;;;;3.45;2.20;;;;;;;;;;4995919;28;20771;-81
2023/05/11 02:27:51;;;;;;;2.00;1.90;;;;;;;;;;4994576;28;20211;-80
2023/05/11 02:30:19;;;;;;;2.15;1.80;;;;;;;;;;4995106;28;20208;-82
2023/05/11 02:32:52;;;;;;;1.67;1.58;;;;;;;;;;4995687;28;20584;-80
2023/05/11 02:35:26;;;;;;;1.63;1.52;;;;;;;;;;4994898;28;20199;-81
2023/05/11 02:37:56;;;;;;;1.77;1.50;;;;;;;;;;4994082;28;20194;-81
2023/05/11 02:40:29;;;;;;;1.60;1.50;;;;;;;;;;4995089;28;20210;-81
2023/05/11 02:43:02;;;;;;;1.70;1.60;;;;;;;;;;4994120;28;20207;-81
2023/05/11 02:45:32;;;;;;;1.50;1.40;;;;;;;;;;4994463;28;20199;-81
2023/05/11 02:48:03;;;;;;;1.63;1.52;;;;;;;;;;4994056;28;20283;-81
2023/05/11 02:50:36;;;;;;;2.60;2.28;;;;;;;;;;4994601;28;20586;-79
2023/05/11 02:53:08;;;;;;;1.90;1.75;;;;;;;;;;4994436;28;20207;-81
2023/05/11 02:55:35;;;;;;;1.58;1.48;;;;;;;;;;4994104;28;20310;-81
2023/05/11 02:58:03;;;;;;;2.25;2.05;;;;;;;;;;4993802;28;20285;-80
2023/05/11 03:00:30;;;;;;;2.65;2.45;;;;;;;;;;4993983;28;20217;-80
2023/05/11 03:02:59;;;;;;;2.08;1.92;;;;;;;;;;4994602;28;20254;-80
2023/05/11 03:05:26;;;;;;;2.10;1.92;;;;;;;;;;4994855;28;20234;-81
2023/05/11 03:07:58;;;;;;;2.55;2.33;;;;;;;;;;4993872;28;20204;-78
2023/05/11 03:10:27;;;;;;;3.17;2.88;;;;;;;;;;4994145;28;20690;-79
2023/05/11 03:12:55;;;;;;;3.50;3.03;;;;;;;;;;4993894;28;20205;-81
2023/05/11 03:15:22;;;;;;;3.03;2.83;;;;;;;;;;4993315;28;20231;-79
2023/05/11 03:17:50;;;;;;;4.28;3.88;;;;;;;;;;4993478;28;20214;-80
2023/05/11 03:20:18;;;;;;;3.05;2.42;;;;;;;;;;4997317;28;20271;-79
2023/05/11 03:22:46;;;;;;;2.92;2.67;;;;;;;;;;4997556;28;20298;-81
2023/05/11 03:25:16;;;;;;;3.72;3.42;;;;;;;;;;4997101;28;20675;-80
2023/05/11 03:27:44;;;;;;;2.95;2.65;;;;;;;;;;4996221;28;20208;-80
2023/05/11 03:30:14;;;;;;;3.63;3.33;;;;;;;;;;4996792;28;20214;-79
2023/05/11 03:32:41;;;;;;;3.78;3.47;;;;;;;;;;4996596;28;20206;-79
2023/05/11 03:35:09;;;;;;;4.10;3.70;;;;;;;;;;4996303;28;20314;-81
2023/05/11 03:37:38;;;;;;;3.97;3.40;;;;;;;;;;4996075;28;20220;-79
2023/05/11 03:40:07;;;;;;;4.20;3.83;;;;;;;;;;4995997;28;20286;-79
2023/05/11 03:42:37;;;;;;;4.40;4.10;;;;;;;;;;4995661;28;20235;-80
2023/05/11 03:45:07;;;;;;;4.43;4.05;;;;;;;;;;4995867;28;20295;-79
2023/05/11 03:47:36;;;;;;;4.18;3.78;;;;;;;;;;4995691;28;20719;-79
2023/05/11 03:50:04;;;;;;;3.60;3.30;;;;;;;;;;4995827;28;20207;-79
2023/05/11 03:52:32;;;;;;;4.00;3.50;;;;;;;;;;4995460;28;20858;-79
2023/05/11 03:54:59;;;;;;;4.25;3.85;;;;;;;;;;4995766;28;20223;-78
2023/05/11 03:57:27;;;;;;;3.50;3.20;;;;;;;;;;4995674;28;20265;-78
2023/05/11 03:59:56;;;;;;;3.67;3.38;;;;;;;;;;4995812;28;20286;-78
2023/05/11 04:02:23;;;;;;;3.22;2.92;;;;;;;;;;4996039;28;20210;-79
2023/05/11 04:04:52;;;;;;;3.95;3.55;;;;;;;;;;4995710;28;20286;-80
2023/05/11 04:07:19;;;;;;;2.90;2.58;;;;;;;;;;4995600;28;20235;-78
2023/05/11 04:09:47;;;;;;;2.70;2.50;;;;;;;;;;4995311;28;20204;-79
2023/05/11 04:12:14;;;;;;;2.63;2.42;;;;;;;;;;4995183;28;20289;-78
2023/05/11 04:14:42;;;;;;;3.72;3.42;;;;;;;;;;4995338;28;20231;-78
2023/05/11 04:17:11;;;;;;;3.72;3.42;;;;;;;;;;4995287;28;20310;-79
2023/05/11 04:19:38;;;;;;;3.05;2.85;;;;;;;;;;4995271;28;20300;-80
2023/05/11 04:22:05;;;;;;;2.58;2.42;;;;;;;;;;4995536;28;20214;-79
2023/05/11 04:24:33;;;;;;;2.83;2.63;;;;;;;;;;4994989;28;20295;-78
2023/05/11 04:27:00;;;;;;;3.80;3.40;;;;;;;;;;4995194;28;20318;-77
2023/05/11 04:29:28;;;;;;;4.15;2.80;;;;;;;;;;5001290;28;20295;-78
2023/05/11 04:31:55;;;;;;;2.83;2.63;;;;;;;;;;5014653;28;20225;-79
2023/05/11 04:34:24;;;;;;;2.10;1.92;;;;;;;;;;5014765;28;20647;-79
2023/05/11 04:36:52;;;;;;;1.95;1.85;;;;;;;;;;5014788;28;20223;-79
2023/05/11 04:39:19;;;;;;;2.55;2.30;;;;;;;;;;5014617;28;20270;-79
2023/05/11 04:41:47;;;;;;;4.07;3.05;;;;;;;;;;5014201;28;20229;-78
2023/05/11 04:44:14;;;;;;;2.80;2.53;;;;;;;;;;5014876;28;20253;-79
2023/05/11 04:46:42;;;;;;;3.33;3.03;;;;;;;;;;5008798;28;20321;-79
2023/05/11 04:49:09;;;;;;;2.30;2.10;;;;;;;;;;4994558;28;20290;-78
2023/05/11 04:51:39;;;;;;;2.65;2.45;;;;;;;;;;5008625;28;20208;-77
2023/05/11 04:54:06;;;;;;;3.08;2.88;;;;;;;;;;5012412;28;20204;-79
2023/05/11 04:56:35;;;;;;;2.70;2.50;;;;;;;;;;5011601;28;20250;-78
2023/05/11 04:59:02;;;;;;;3.53;3.25;;;;;;;;;;5016560;28;20214;-78
2023/05/11 05:01:30;;;;;;;3.83;3.22;;;;;;;;;;5033187;28;20226;-77
2023/05/11 05:03:57;;;;;;;3.28;3.08;;;;;;;;;;5029186;28;20283;-81
2023/05/11 05:06:25;;;;;;;2.92;2.72;;;;;;;;;;5020781;28;20286;-80
2023/05/11 05:08:53;;;;;;;2.92;2.72;;;;;;;;;;5020597;28;20782;-81
2023/05/11 05:11:21;;;;;;;2.55;2.35;;;;;;;;;;5020792;28;20263;-81
2023/05/11 05:13:48;;;;;;;2.50;2.40;;;;;;;;;;5019210;28;20214;-81
2023/05/11 05:16:16;;;;;;;2.00;1.90;;;;;;;;;;5016775;28;20261;-80
2023/05/11 05:18:43;;;;;;;2.83;2.55;;;;;;;;;;4998498;28;20481;-81
2023/05/11 05:21:11;;;;;;;3.28;3.00;;;;;;;;;;4998933;28;20660;-80
2023/05/11 05:23:38;;;;;;;2.20;2.00;;;;;;;;;;4997958;28;20290;-81
2023/05/11 05:26:07;;;;;;;2.03;1.92;;;;;;;;;;4998131;28;20287;-80
2023/05/11 05:28:35;;;;;;;2.10;2.00;;;;;;;;;;4997842;28;20298;-79
2023/05/11 05:31:03;;;;;;;1.75;1.65;;;;;;;;;;4998276;28;20211;-81
2023/05/11 05:33:30;;;;;;;2.60;2.35;;;;;;;;;;4999012;28;20746;-80
2023/05/11 05:35:57;;;;;;;2.45;2.30;;;;;;;;;;4998404;28;20314;-81
2023/05/11 05:38:25;;;;;;;1.70;1.60;;;;;;;;;;4997901;28;20246;-81
2023/05/11 05:40:53;;;;;;;1.60;1.50;;;;;;;;;;4996325;28;20208;-79
2023/05/11 05:43:22;;;;;;;1.77;1.67;;;;;;;;;;4994772;28;20270;-79
2023/05/11 05:45:49;;;;;;;2.20;2.10;;;;;;;;;;4994807;28;20220;-79
2023/05/11 05:48:16;;;;;;;2.28;2.08;;;;;;;;;;4994825;28;20583;-79
2023/05/11 05:50:44;;;;;;;2.00;1.90;;;;;;;;;;4994815;28;20946;-79
2023/05/11 05:53:11;;;;;;;2.50;2.30;;;;;;;;;;4995005;28;20235;-80
2023/05/11 05:55:39;;;;;;;2.65;2.45;;;;;;;;;;4994369;28;20233;-81
2023/05/11 05:58:06;;;;;;;2.05;1.95;;;;;;;;;;4994122;28;20234;-80
2023/05/11 06:00:35;;;;;;;2.55;2.35;;;;;;;;;;4994651;28;20344;-79
2023/05/11 06:03:03;;;;;;;1.88;1.77;;;;;;;;;;4994485;28;20211;-79
2023/05/11 06:05:31;;;;;;;2.97;2.72;;;;;;;;;;4994429;28;20203;-79
2023/05/11 06:07:58;;;;;;;3.38;3.03;;;;;;;;;;4994151;28;20686;-78
2023/05/11 06:10:26;;;;;;;3.67;3.15;;;;;;;;;;4994470;28;20295;-79
2023/05/11 06:12:54;;;;;;;4.20;3.75;;;;;;;;;;4994774;28;20215;-79
2023/05/11 06:15:22;;;;;;;4.75;4.32;;;;;;;;;;4994046;28;20621;-79
2023/05/11 06:17:50;;;;;;;5.05;4.55;;;;;;;;;;4993846;28;20207;-79
2023/05/11 06:20:18;;;;;;;7.05;5.30;;;;;;;;;;4994198;28;20291;-79
2023/05/11 06:22:45;;;;;;;6.15;4.43;;;;;;;;;;4994087;28;20570;-78
2023/05/11 06:25:13;;;;;;;5.75;5.00;;;;;;;;;;4993516;28;20298;-79
2023/05/11 06:27:40;;;;;;;8.32;5.60;;;;;;;;;;4993538;28;20208;-79
2023/05/11 06:30:09;;;;;;;6.65;5.07;;;;;;;;;;4993806;28;20207;-80
2023/05/11 06:32:37;;;;;;;5.00;4.53;;;;;;;;;;4994201;28;20624;-79
2023/05/11 06:35:07;;;;;;;5.88;5.13;;;;;;;;;;4993691;28;20203;-80
2023/05/11 06:37:34;;;;;;;5.95;4.95;;;;;;;;;;4993040;28;20255;-79
2023/05/11 06:40:02;;;;;;;5.45;4.15;;;;;;;;;;4992884;28;20287;-78
2023/05/11 06:42:29;;;;;;;6.40;5.18;;;;;;;;;;4993104;28;20204;-78
2023/05/11 06:44:57;;;;;;;7.47;5.65;;;;;;;;;;4992938;28;20199;-78
2023/05/11 06:47:24;;;;;;;7.93;5.30;;;;;;;;;;4992966;28;20229;-78
2023/05/11 06:49:52;;;;;;;6.40;5.78;;;;;;;;;;4992362;28;20684;-79
2023/05/11 06:52:20;;;;;;;7.28;5.70;;;;;;;;;;4993015;28;20211;-78
2023/05/11 06:54:48;;;;;;;5.60;4.70;;;;;;;;;;4995405;28;20203;-78
2023/05/11 06:57:15;;;;;;;4.07;3.67;;;;;;;;;;4996634;28;20235;-78
2023/05/11 06:59:43;;;;;;;3.67;2.97;;;;;;;;;;4996811;28;20204;-78
2023/05/11 07:02:10;;;;;;;5.72;4.03;;;;;;;;;;4996612;28;20207;-78
2023/05/11 07:04:38;;;;;;;3.30;3.00;;;;;;;;;;4996540;28;20211;-78
2023/05/11 07:07:05;;;;;;;5.65;4.47;;;;;;;;;;5000234;28;20314;-78
2023/05/11 07:09:34;;;;;;;3.53;3.22;;;;;;;;;;5009352;28;20199;-78
2023/05/11 07:12:02;;;;;;;6.50;4.90;;;;;;;;;;5021337;28;20290;-78
2023/05/11 07:14:29;;;;;;;4.68;4.28;;;;;;;;;;5016628;28;20675;-78
2023/05/11 07:16:57;;;;;;;5.85;5.25;;;;;;;;;;5008505;28;20235;-78
2023/05/11 07:19:24;;;;;;;5.63;5.05;;;;;;;;;;4996694;28;20270;-78
2023/05/11 07:21:52;;;;;;;5.40;4.90;;;;;;;;;;4996751;28;20207;-78
2023/05/11 07:24:19;;;;;;;6.75;5.63;;;;;;;;;;4996540;28;20258;-79
2023/05/11 07:26:50;;;;;;;8.15;5.57;;;;;;;;;;4997441;28;20600;-80
2023/05/11 07:29:18;;;;;;;5.68;5.15;;;;;;;;;;4997287;28;20335;-78
2023/05/11 07:31:45;;;;;;;5.13;4.63;;;;;;;;;;4996986;28;20214;-79
2023/05/11 07:34:12;;;;;;;5.30;4.75;;;;;;;;;;4996828;28;20203;-80
2023/05/11 07:36:40;;;;;;;5.40;4.88;;;;;;;;;;5000584;28;20241;-80
2023/05/11 07:39:09;;;;;;;6.50;5.10;;;;;;;;;;5017455;28;20203;-79
2023/05/11 07:41:36;;;;;;;4.22;3.83;;;;;;;;;;5016637;28;20265;-80
2023/05/11 07:44:06;;;;;;;6.03;5.20;;;;;;;;;;5017459;28;20225;-79
2023/05/11 07:46:33;;;;;;;6.35;5.65;;;;;;;;;;5017390;28;20610;-79
2023/05/11 07:49:01;;;;;;;3.50;3.20;;;;;;;;;;5016278;28;20203;-79
2023/05/11 07:51:28;;;;;;;3.65;3.30;;;;;;;;;;5017027;28;20238;-79
2023/05/11 07:53:55;;;;;;;2.90;2.63;;;;;;;;;;5016851;28;20207;-79
2023/05/11 07:56:23;;;;;;;4.22;3.55;;;;;;;;;;5016117;28;20261;-78
2023/05/11 07:58:51;;;;;;;5.05;4.55;;;;;;;;;;5017924;28;20223;-77
2023/05/11 08:01:20;;;;;;;4.97;4.47;;;;;;;;;;5027816;28;20706;-77
2023/05/11 08:03:47;;;;;;;3.88;3.45;;;;;;;;;;5028181;28;20206;-78
2023/05/11 08:06:15;;;;;;;5.05;4.50;;;;;;;;;;5027581;28;20238;-78
2023/05/11 08:08:42;;;;;;;3.72;3.42;;;;;;;;;;5011017;28;20207;-78
2023/05/11 08:11:10;;;;;;;4.03;3.60;;;;;;;;;;5010853;28;20243;-78
2023/05/11 08:13:37;;;;;;;3.50;3.20;;;;;;;;;;5005537;28;20253;-80
2023/05/11 08:16:06;;;;;;;3.55;3.25;;;;;;;;;;4999115;28;20779;-80
2023/05/11 08:18:35;;;;;;;4.35;3.95;;;;;;;;;;4999550;28;20208;-79
2023/05/11 08:21:02;;;;;;;3.17;2.88;;;;;;;;;;4998983;28;20204;-78
2023/05/11 08:23:30;;;;;;;3.88;3.58;;;;;;;;;;4998398;28;20295;-79
2023/05/11 08:25:58;;;;;;;4.13;3.72;;;;;;;;;;4998794;28;20234;-80
2023/05/11 08:28:25;;;;;;;3.10;2.80;;;;;;;;;;4998016;28;20606;-79
2023/05/11 08:30:57;;;;;;;2.58;2.38;;;;;;;;;;4997806;28;20668;-81
2023/05/11 08:33:24;;;;;;;1.65;1.55;;;;;;;;;;4998063;28;20210;-79
2023/05/11 08:35:53;;;;;;;4.30;3.35;;;;;;;;;;4996977;28;20230;-79
2023/05/11 08:38:20;;;;;;;2.50;2.30;;;;;;;;;;4996556;28;20227;-79
2023/05/11 08:40:48;;;;;;;2.85;2.55;;;;;;;;;;4997515;28;20683;-80
2023/05/11 08:43:16;;;;;;;2.67;2.47;;;;;;;;;;4997407;28;20243;-79
2023/05/11 08:45:47;;;;;;;2.47;2.28;;;;;;;;;;4997027;28;20315;-79
2023/05/11 08:48:16;;;;;;;2.47;2.28;;;;;;;;;;4997102;28;20203;-79
2023/05/11 08:50:45;;;;;;;3.60;3.30;;;;;;;;;;4997126;28;20668;-80
2023/05/11 08:53:14;;;;;;;3.00;2.72;;;;;;;;;;4997249;28;20199;-79
2023/05/11 08:55:43;;;;;;;4.60;3.67;;;;;;;;;;4996815;28;20314;-79
2023/05/11 08:58:13;;;;;;;3.75;3.38;;;;;;;;;;4997315;28;20310;-79
2023/05/11 09:00:41;;;;;;;2.60;2.40;;;;;;;;;;4997827;28;20190;-79
2023/05/11 09:03:10;;;;;;;2.53;2.00;;;;;;;;;;4996799;28;20306;-79
2023/05/11 09:05:37;;;;;;;3.35;3.05;;;;;;;;;;4996450;28;20223;-78
2023/05/11 09:08:06;;;;;;;3.25;2.95;;;;;;;;;;4997180;28;20238;-79
2023/05/11 09:10:37;;;;;;;3.95;3.55;;;;;;;;;;4998415;28;20263;-80
2023/05/11 09:13:04;;;;;;;2.65;2.45;;;;;;;;;;4999300;28;20195;-79
2023/05/11 09:15:32;;;;;;;4.30;3.97;;;;;;;;;;4996659;28;20210;-79
2023/05/11 09:17:59;;;;;;;3.60;3.30;;;;;;;;;;4996500;28;20346;-79
2023/05/11 09:20:30;;;;;;;5.05;4.25;;;;;;;;;;4996513;28;20294;-79
2023/05/11 09:22:58;;;;;;;3.05;2.75;;;;;;;;;;4997602;28;20200;-79
2023/05/11 09:25:29;;;;;;;4.65;3.97;;;;;;;;;;4996613;28;20295;-78
2023/05/11 09:27:59;;;;;;;3.33;3.13;;;;;;;;;;4996087;28;20285;-80
2023/05/11 09:30:27;;;;;;;3.50;3.20;;;;;;;;;;4996190;28;20218;-79
2023/05/11 09:32:56;;;;;;;4.00;3.67;;;;;;;;;;4995833;28;20223;-79
2023/05/11 09:35:27;;;;;;;1.98;1.80;;;;;;;;;;4995418;28;20200;-79
2023/05/11 09:38:01;;;;;;;3.85;3.55;;;;;;;;;;4995161;28;20629;-79
2023/05/11 09:40:29;;;;;;;2.63;2.42;;;;;;;;;;4995233;28;20621;-79
2023/05/11 09:42:59;;;;;;;2.40;2.20;;;;;;;;;;4995580;28;20206;-80
2023/05/11 09:45:40;;;;;;;3.08;2.58;;;;;;;;;;4996013;28;20199;-79
2023/05/11 09:48:14;;;;;;;2.88;2.50;;;;;;;;;;4996233;28;20620;-79
2023/05/11 09:50:42;;;;;;;2.15;1.98;;;;;;;;;;4995685;28;20303;-81
2023/05/11 09:53:09;;;;;;;2.25;2.10;;;;;;;;;;4995282;28;20206;-79
2023/05/11 09:55:37;;;;;;;2.88;2.67;;;;;;;;;;4995489;28;20223;-79
2023/05/11 09:58:06;;;;;;;2.88;2.67;;;;;;;;;;4995051;28;20314;-79
2023/05/11 10:00:33;;;;;;;2.53;2.33;;;;;;;;;;4995294;28;20294;-78
2023/05/11 10:03:03;;;;;;;2.10;1.90;;;;;;;;;;4995412;28;20275;-78
2023/05/11 10:05:32;;;;;;;5.32;3.15;;;;;;;;;;4994836;28;20218;-79
2023/05/11 10:08:01;;;;;;;3.13;2.88;;;;;;;;;;4994659;28;20291;-79
2023/05/11 10:10:30;;;;;;;3.10;2.80;;;;;;;;;;4995204;28;20218;-79
2023/05/11 10:13:00;;;;;;;3.13;2.90;;;;;;;;;;4995181;28;20211;-79
2023/05/11 10:15:31;;;;;;;2.63;2.42;;;;;;;;;;4996134;28;20295;-79
2023/05/11 10:18:00;;;;;;;2.60;2.40;;;;;;;;;;4994694;28;20227;-78
2023/05/11 10:20:27;;;;;;;4.53;3.33;;;;;;;;;;4996688;28;20199;-80
2023/05/11 10:22:56;;;;;;;4.32;2.97;;;;;;;;;;4996741;28;20200;-80
2023/05/11 10:25:25;;;;;;;3.47;3.17;;;;;;;;;;4995190;28;20268;-79
2023/05/11 10:27:53;;;;;;;3.15;2.85;;;;;;;;;;4995059;28;20750;-80
2023/05/11 10:30:20;;;;;;;3.28;2.97;;;;;;;;;;4994410;28;20196;-81
2023/05/11 10:32:49;;;;;;;2.75;2.55;;;;;;;;;;4994836;28;20208;-80
2023/05/11 10:35:17;;;;;;;2.67;2.47;;;;;;;;;;4994981;28;20235;-79
2023/05/11 10:37:46;;;;;;;3.22;3.03;;;;;;;;;;4993850;28;20676;-80
2023/05/11 10:40:14;;;;;;;3.88;2.63;;;;;;;;;;4994429;28;20690;-79
2023/05/11 10:43:36;;;;;;;4.45;3.53;;;;;;;;;;4994415;28;20214;-79
2023/05/11 10:46:15;;;;;;;3.08;2.15;;;;;;;;;;4994033;28;20235;-79
2023/05/11 10:49:17;;;;;;;3.03;2.55;;;;;;;;;;4993620;28;20562;-80
2023/05/11 10:52:18;;;;;;;2.28;2.08;;;;;;;;;;4989226;28;20205;-79
2023/05/11 10:55:01;;;;;;;2.30;2.10;;;;;;;;;;4995320;28;20199;-80
2023/05/11 10:57:48;;;;;;;2.50;2.30;;;;;;;;;;4994282;28;20220;-80
2023/05/11 11:01:05;;;;;;;2.35;1.95;;;;;;;;;;4993942;28;20668;-78
2023/05/11 11:03:33;;;;;;;2.70;2.50;;;;;;;;;;4994036;28;20594;-79
2023/05/11 11:06:02;;;;;;;2.33;2.13;;;;;;;;;;4997213;28;20233;-78
2023/05/11 11:08:30;;;;;;;3.42;3.13;;;;;;;;;;4997794;28;20586;-78
2023/05/11 11:10:57;;;;;;;2.90;2.70;;;;;;;;;;4996903;28;20207;-78
2023/05/11 11:13:25;;;;;;;3.08;2.55;;;;;;;;;;4998139;28;20214;-79
2023/05/11 11:16:12;;;;;;;3.95;3.60;;;;;;;;;;4997780;28;20224;-78
2023/05/11 11:18:39;;;;;;;2.90;2.70;;;;;;;;;;4996766;28;20228;-80
2023/05/11 11:21:12;;;;;;;2.70;2.30;;;;;;;;;;4995802;28;20663;-80
2023/05/11 11:23:49;;;;;;;2.47;2.28;;;;;;;;;;4996576;28;20299;-80
2023/05/11 11:26:20;;;;;;;2.65;2.45;;;;;;;;;;4996050;28;20765;-81
2023/05/11 11:29:12;;;;;;;7.13;5.95;;;;;;;;;;4995675;28;20215;-80
2023/05/11 11:31:40;;;;;;;4.45;4.05;;;;;;;;;;4995710;28;20243;-80
2023/05/11 11:34:42;;;;;;;2.58;2.38;;;;;;;;;;4995065;28;20289;-80
2023/05/11 11:37:12;;;;;;;2.53;2.33;;;;;;;;;;4934658;29;20775;-79
2023/05/11 11:40:03;;;;;;;2.03;1.90;;;;;;;;;;4933905;29;20798;-80
2023/05/11 11:42:40;;;;;;;2.13;1.98;;;;;;;;;;4974922;28;20254;-79
2023/05/11 11:45:38;;;;;;;2.20;2.00;;;;;;;;;;4997794;28;20206;-79
2023/05/11 11:48:11;;;;;;;2.97;2.72;;;;;;;;;;4964085;28;20298;-79
2023/05/11 11:50:44;;;;;;;3.05;2.75;;;;;;;;;;4998746;28;20253;-79
2023/05/11 11:53:33;;;;;;;3.38;3.08;;;;;;;;;;4997938;28;20598;-79
2023/05/11 11:56:00;;;;;;;2.08;1.98;;;;;;;;;;4997020;28;20315;-80
2023/05/11 11:58:59;;;;;;;1.98;1.88;;;;;;;;;;4996609;28;20294;-80
2023/05/11 12:01:28;;;;;;;2.42;2.22;;;;;;;;;;4996718;28;20214;-80
2023/05/11 12:04:39;;;;;;;2.65;2.38;;;;;;;;;;4996838;28;20233;-79
2023/05/11 12:07:10;;;;;;;1.98;1.85;;;;;;;;;;4971312;28;20233;-80
2023/05/11 12:09:40;;;;;;;3.38;3.05;;;;;;;;;;5016372;28;20706;-79
2023/05/11 12:12:08;;;;;;;3.38;3.08;;;;;;;;;;5017133;28;20187;-79
2023/05/11 12:14:36;;;;;;;2.78;2.58;;;;;;;;;;5016288;28;20194;-80
2023/05/11 12:17:12;;;;;;;2.80;2.55;;;;;;;;;;5015507;28;20242;-78
2023/05/11 12:19:41;;;;;;;3.70;3.40;;;;;;;;;;5015962;28;20231;-79
2023/05/11 12:22:09;;;;;;;3.45;2.45;;;;;;;;;;5016107;28;20206;-78
2023/05/11 12:24:38;;;;;;;4.38;3.30;;;;;;;;;;5015857;28;20237;-79
2023/05/11 12:27:06;;;;;;;4.10;3.50;;;;;;;;;;5016729;28;20219;-79
2023/05/11 12:29:34;;;;;;;3.30;3.03;;;;;;;;;;5016076;28;20299;-80
2023/05/11 12:32:01;;;;;;;3.55;3.25;;;;;;;;;;5016694;28;20203;-80
2023/05/11 12:34:29;;;;;;;3.80;3.50;;;;;;;;;;5016547;28;20213;-80
2023/05/11 12:36:58;;;;;;;4.28;3.88;;;;;;;;;;5010691;28;20230;-80
2023/05/11 12:39:27;;;;;;;3.60;3.30;;;;;;;;;;4997017;28;20302;-80
2023/05/11 12:41:57;;;;;;;4.28;3.88;;;;;;;;;;4997126;28;20207;-79
2023/05/11 12:44:25;;;;;;;3.70;3.15;;;;;;;;;;4997451;28;20290;-79
2023/05/11 12:46:53;;;;;;;3.75;3.38;;;;;;;;;;5003878;28;20227;-79
2023/05/11 12:49:22;;;;;;;4.05;3.72;;;;;;;;;;5015760;28;20556;-78
2023/05/11 12:51:59;;;;;;;4.32;3.97;;;;;;;;;;5015551;28;20215;-80
2023/05/11 12:54:31;;;;;;;4.90;3.83;;;;;;;;;;5015509;28;20209;-79
2023/05/11 12:57:01;;;;;;;4.03;3.55;;;;;;;;;;5015315;28;20633;-78
2023/05/11 12:59:34;;;;;;;5.38;4.13;;;;;;;;;;5015423;28;20226;-78
2023/05/11 13:02:16;;;;;;;4.22;3.55;;;;;;;;;;5015894;28;20627;-78
2023/05/11 13:04:45;;;;;;;3.85;3.58;;;;;;;;;;5015939;28;20199;-79
2023/05/11 13:07:27;;;;;;;4.90;3.78;;;;;;;;;;5009658;28;20226;-78
2023/05/11 13:09:58;;;;;;;4.30;3.70;;;;;;;;;;5009913;28;20206;-78
2023/05/11 13:12:28;;;;;;;4.72;4.15;;;;;;;;;;5026660;28;20202;-80
2023/05/11 13:15:07;;;;;;;5.00;4.50;;;;;;;;;;5035377;28;20274;-78
2023/05/11 13:17:37;;;;;;;3.67;3.38;;;;;;;;;;5009876;28;20227;-80
2023/05/11 13:20:22;;;;;;;6.60;4.50;;;;;;;;;;4994512;28;20230;-78
2023/05/11 13:22:50;;;;;;;4.30;3.58;;;;;;;;;;4994887;28;20622;-78
2023/05/11 13:25:20;;;;;;;4.63;4.22;;;;;;;;;;4994079;28;20291;-79
2023/05/11 13:27:48;;;;;;;5.43;4.85;;;;;;;;;;4993995;28;20217;-78
2023/05/11 13:30:16;;;;;;;5.05;4.50;;;;;;;;;;4994413;28;20196;-79
2023/05/11 13:32:43;;;;;;;4.43;4.00;;;;;;;;;;4994302;28;20341;-79
2023/05/11 13:35:11;;;;;;;4.55;4.10;;;;;;;;;;4994406;28;20298;-79
2023/05/11 13:37:38;;;;;;;4.22;3.83;;;;;;;;;;4993574;28;20228;-79
2023/05/11 13:40:09;;;;;;;4.88;4.28;;;;;;;;;;4994185;28;20228;-78
2023/05/11 13:42:36;;;;;;;6.20;5.60;;;;;;;;;;4994536;28;20214;-78
2023/05/11 13:45:07;;;;;;;7.75;7.03;;;;;;;;;;4994293;28;20212;-78
2023/05/11 13:47:34;;;;;;;6.65;5.63;;;;;;;;;;4993989;28;20621;-79
2023/05/11 13:50:02;;;;;;;5.05;4.55;;;;;;;;;;4993804;28;20199;-78
2023/05/11 13:52:30;;;;;;;5.78;5.25;;;;;;;;;;4994367;28;20290;-78
2023/05/11 13:54:57;;;;;;;4.63;4.15;;;;;;;;;;4994601;28;20215;-79
2023/05/11 13:57:24;;;;;;;4.85;4.38;;;;;;;;;;4994262;28;20237;-78
2023/05/11 13:59:52;;;;;;;5.22;4.60;;;;;;;;;;4993515;28;20227;-80
2023/05/11 14:02:21;;;;;;;5.28;4.78;;;;;;;;;;4996630;28;20625;-80
2023/05/11 14:04:48;;;;;;;4.63;4.13;;;;;;;;;;4994533;28;20651;-79
2023/05/11 14:07:16;;;;;;;4.63;4.13;;;;;;;;;;4994966;28;20237;-80
2023/05/11 14:09:43;;;;;;;5.55;4.65;;;;;;;;;;4995771;28;20227;-78
2023/05/11 14:12:11;;;;;;;4.75;4.35;;;;;;;;;;4997954;28;20207;-78
2023/05/11 14:14:38;;;;;;;5.63;5.03;;;;;;;;;;4998241;28;20215;-78
2023/05/11 14:17:06;;;;;;;4.28;3.88;;;;;;;;;;4998874;28;20231;-79
2023/05/11 14:19:35;;;;;;;4.40;4.00;;;;;;;;;;5006117;28;20235;-80
2023/05/11 14:22:02;;;;;;;4.20;3.83;;;;;;;;;;5003732;28;20250;-77
2023/05/11 14:24:30;;;;;;;3.90;3.58;;;;;;;;;;4999268;28;20243;-80
2023/05/11 14:26:58;;;;;;;3.70;3.28;;;;;;;;;;4996402;28;20266;-80
2023/05/11 14:29:26;;;;;;;2.97;2.67;;;;;;;;;;4996014;28;20211;-80
2023/05/11 14:31:54;;;;;;;5.32;2.85;;;;;;;;;;4995854;28;20206;-80
2023/05/11 14:34:21;;;;;;;3.75;3.45;;;;;;;;;;4995265;28;20210;-80
2023/05/11 14:36:50;;;;;;;3.10;2.90;;;;;;;;;;5000682;28;20223;-80
2023/05/11 14:39:17;;;;;;;3.25;2.92;;;;;;;;;;5014875;28;20203;-79
2023/05/11 14:41:45;;;;;;;2.50;2.30;;;;;;;;;;5014808;28;20234;-81
2023/05/11 14:44:12;;;;;;;2.65;2.45;;;;;;;;;;5013955;28;20209;-80
2023/05/11 14:46:40;;;;;;;2.45;2.33;;;;;;;;;;5015210;28;20226;-80
2023/05/11 14:49:07;;;;;;;2.10;1.90;;;;;;;;;;5014406;28;20738;-79
2023/05/11 14:51:34;;;;;;;1.90;1.80;;;;;;;;;;5014304;28;20207;-80
2023/05/11 14:54:03;;;;;;;2.60;2.40;;;;;;;;;;5014203;28;20209;-80
2023/05/11 14:56:31;;;;;;;1.83;1.73;;;;;;;;;;5014467;28;20241;-80
2023/05/11 14:58:58;;;;;;;2.70;2.47;;;;;;;;;;5013358;28;20289;-80
2023/05/11 15:01:26;;;;;;;2.75;2.55;;;;;;;;;;5014170;28;20317;-79